sensor_id;sensor_type;location;lat;lon;timestamp;temperature;humidity
14769;DHT22;7476;49.404;11.152;2022-09-13T00:00:25;11.40;99.90
14769;DHT22;7476;49.404;11.152;2022-09-13T00:02:52;11.30;99.90
14769;DHT22;7476;49.404;11.152;2022-09-13T00:05:18;11.20;99.90
14769;DHT22;7476;49.404;11.152;2022-09-13T00:07:47;11.10;99.90
14769;DHT22;7476;49.404;11.152;2022-09-13T00:10:14;11.10;99.90
14769;DHT22;7476;49.404;11.152;2022-09-13T00:12:40;11.10;99.90
14769;DHT22;7476;49.404;11.152;2022-09-13T00:15:08;10.90;99.90
14769;DHT22;7476;49.404;11.152;2022-09-13T00:17:36;10.90;99.90
14769;DHT22;7476;49.404;11.152;2022-09-13T00:20:03;10.90;99.90
14769;DHT22;7476;49.404;11.152;2022-09-13T00:22:30;10.80;99.90
14769;DHT22;7476;49.404;11.152;2022-09-13T00:24:58;10.70;99.90
14769;DHT22;7476;49.404;11.152;2022-09-13T00:27:25;10.70;99.90
14769;DHT22;7476;49.404;11.152;2022-09-13T00:29:51;10.70;99.90
14769;DHT22;7476;49.404;11.152;2022-09-13T00:32:18;10.60;99.90
14769;DHT22;7476;49.404;11.152;2022-09-13T00:34:44;10.60;99.90
14769;DHT22;7476;49.404;11.152;2022-09-13T00:37:11;10.30;99.90
14769;DHT22;7476;49.404;11.152;2022-09-13T00:39:38;10.20;99.90
14769;DHT22;7476;49.404;11.152;2022-09-13T00:42:09;10.10;99.90
14769;DHT22;7476;49.404;11.152;2022-09-13T00:44:49;10.20;99.90
14769;DHT22;7476;49.404;11.152;2022-09-13T00:47:20;10.30;99.90
14769;DHT22;7476;49.404;11.152;2022-09-13T00:49:51;10.40;99.90
14769;DHT22;7476;49.404;11.152;2022-09-13T00:52:21;10.10;99.90
14769;DHT22;7476;49.404;11.152;2022-09-13T00:54:54;10.20;99.90
14769;DHT22;7476;49.404;11.152;2022-09-13T00:57:23;10.20;99.90
14769;DHT22;7476;49.404;11.152;2022-09-13T00:59:55;10.30;99.90
14769;DHT22;7476;49.404;11.152;2022-09-13T01:02:24;10.20;99.90
14769;DHT22;7476;49.404;11.152;2022-09-13T01:04:51;10.30;99.90
14769;DHT22;7476;49.404;11.152;2022-09-13T01:07:18;10.20;99.90
14769;DHT22;7476;49.404;11.152;2022-09-13T01:09:46;10.20;99.90
14769;DHT22;7476;49.404;11.152;2022-09-13T01:12:18;10.30;99.90
14769;DHT22;7476;49.404;11.152;2022-09-13T01:14:51;10.30;99.90
14769;DHT22;7476;49.404;11.152;2022-09-13T01:17:18;10.40;99.90
14769;DHT22;7476;49.404;11.152;2022-09-13T01:19:45;10.30;99.90
14769;DHT22;7476;49.404;11.152;2022-09-13T01:22:44;10.30;99.90
14769;DHT22;7476;49.404;11.152;2022-09-13T01:25:41;10.20;99.90
14769;DHT22;7476;49.404;11.152;2022-09-13T01:28:32;10.30;99.90
14769;DHT22;7476;49.404;11.152;2022-09-13T01:31:06;10.30;99.90
14769;DHT22;7476;49.404;11.152;2022-09-13T01:33:47;10.30;99.90
14769;DHT22;7476;49.404;11.152;2022-09-13T01:36:42;10.20;99.90
14769;DHT22;7476;49.404;11.152;2022-09-13T01:39:16;10.00;99.90
14769;DHT22;7476;49.404;11.152;2022-09-13T01:41:56;9.80;99.90
14769;DHT22;7476;49.404;11.152;2022-09-13T01:44:33;9.60;99.90
14769;DHT22;7476;49.404;11.152;2022-09-13T01:47:14;9.40;99.90
14769;DHT22;7476;49.404;11.152;2022-09-13T01:49:50;9.30;99.90
14769;DHT22;7476;49.404;11.152;2022-09-13T01:52:24;9.40;99.90
14769;DHT22;7476;49.404;11.152;2022-09-13T01:55:00;9.40;99.90
14769;DHT22;7476;49.404;11.152;2022-09-13T01:57:34;9.40;99.90
14769;DHT22;7476;49.404;11.152;2022-09-13T02:00:05;9.50;99.90
14769;DHT22;7476;49.404;11.152;2022-09-13T02:02:38;9.60;99.90
14769;DHT22;7476;49.404;11.152;2022-09-13T02:05:09;9.80;99.90
14769;DHT22;7476;49.404;11.152;2022-09-13T02:07:40;9.60;99.90
14769;DHT22;7476;49.404;11.152;2022-09-13T02:10:11;9.50;99.90
14769;DHT22;7476;49.404;11.152;2022-09-13T02:12:40;9.30;99.90
14769;DHT22;7476;49.404;11.152;2022-09-13T02:15:11;9.40;99.90
14769;DHT22;7476;49.404;11.152;2022-09-13T02:17:45;9.20;99.90
14769;DHT22;7476;49.404;11.152;2022-09-13T02:20:19;9.20;99.90
14769;DHT22;7476;49.404;11.152;2022-09-13T02:22:51;9.10;99.90
14769;DHT22;7476;49.404;11.152;2022-09-13T02:25:21;9.10;99.90
14769;DHT22;7476;49.404;11.152;2022-09-13T02:27:54;9.20;99.90
14769;DHT22;7476;49.404;11.152;2022-09-13T02:30:23;9.10;99.90
14769;DHT22;7476;49.404;11.152;2022-09-13T02:32:56;9.50;99.90
14769;DHT22;7476;49.404;11.152;2022-09-13T02:35:30;9.70;99.90
14769;DHT22;7476;49.404;11.152;2022-09-13T02:38:01;9.70;99.90
14769;DHT22;7476;49.404;11.152;2022-09-13T02:40:33;9.70;99.90
14769;DHT22;7476;49.404;11.152;2022-09-13T02:43:05;9.70;99.90
14769;DHT22;7476;49.404;11.152;2022-09-13T02:45:41;9.50;99.90
14769;DHT22;7476;49.404;11.152;2022-09-13T02:48:17;9.50;99.90
14769;DHT22;7476;49.404;11.152;2022-09-13T02:50:53;9.60;99.90
14769;DHT22;7476;49.404;11.152;2022-09-13T02:53:26;9.50;99.90
14769;DHT22;7476;49.404;11.152;2022-09-13T02:56:02;9.40;99.90
14769;DHT22;7476;49.404;11.152;2022-09-13T02:58:33;9.50;99.90
14769;DHT22;7476;49.404;11.152;2022-09-13T03:01:01;9.40;99.90
14769;DHT22;7476;49.404;11.152;2022-09-13T03:03:29;9.60;99.90
14769;DHT22;7476;49.404;11.152;2022-09-13T03:05:56;9.60;99.90
14769;DHT22;7476;49.404;11.152;2022-09-13T03:08:23;9.40;99.90
14769;DHT22;7476;49.404;11.152;2022-09-13T03:10:58;9.60;99.90
14769;DHT22;7476;49.404;11.152;2022-09-13T03:13:55;9.50;99.90
14769;DHT22;7476;49.404;11.152;2022-09-13T03:16:39;9.40;99.90
14769;DHT22;7476;49.404;11.152;2022-09-13T03:19:22;9.50;99.90
14769;DHT22;7476;49.404;11.152;2022-09-13T03:22:03;9.30;99.90
14769;DHT22;7476;49.404;11.152;2022-09-13T03:24:36;9.20;99.90
14769;DHT22;7476;49.404;11.152;2022-09-13T03:27:12;9.40;99.90
14769;DHT22;7476;49.404;11.152;2022-09-13T03:29:51;9.20;99.90
14769;DHT22;7476;49.404;11.152;2022-09-13T03:32:25;9.40;99.90
14769;DHT22;7476;49.404;11.152;2022-09-13T03:35:00;9.70;99.90
14769;DHT22;7476;49.404;11.152;2022-09-13T03:37:33;9.90;99.90
14769;DHT22;7476;49.404;11.152;2022-09-13T03:40:06;10.00;99.90
14769;DHT22;7476;49.404;11.152;2022-09-13T03:42:38;10.00;99.90
14769;DHT22;7476;49.404;11.152;2022-09-13T03:45:08;9.90;99.90
14769;DHT22;7476;49.404;11.152;2022-09-13T03:47:39;9.70;99.90
14769;DHT22;7476;49.404;11.152;2022-09-13T03:50:08;10.00;99.90
14769;DHT22;7476;49.404;11.152;2022-09-13T03:52:36;10.00;99.90
14769;DHT22;7476;49.404;11.152;2022-09-13T03:55:03;9.80;99.90
14769;DHT22;7476;49.404;11.152;2022-09-13T03:57:30;9.70;99.90
14769;DHT22;7476;49.404;11.152;2022-09-13T03:59:57;10.00;99.90
14769;DHT22;7476;49.404;11.152;2022-09-13T04:02:25;9.90;99.90
14769;DHT22;7476;49.404;11.152;2022-09-13T04:04:52;10.00;99.90
14769;DHT22;7476;49.404;11.152;2022-09-13T04:07:23;9.80;99.90
14769;DHT22;7476;49.404;11.152;2022-09-13T04:09:49;9.70;99.90
14769;DHT22;7476;49.404;11.152;2022-09-13T04:12:17;9.40;99.90
14769;DHT22;7476;49.404;11.152;2022-09-13T04:14:44;9.20;99.90
14769;DHT22;7476;49.404;11.152;2022-09-13T04:17:11;9.30;99.90
14769;DHT22;7476;49.404;11.152;2022-09-13T04:19:38;9.30;99.90
14769;DHT22;7476;49.404;11.152;2022-09-13T04:22:04;9.30;99.90
14769;DHT22;7476;49.404;11.152;2022-09-13T04:24:32;9.30;99.90
14769;DHT22;7476;49.404;11.152;2022-09-13T04:27:00;9.20;99.90
14769;DHT22;7476;49.404;11.152;2022-09-13T04:29:27;9.40;99.90
14769;DHT22;7476;49.404;11.152;2022-09-13T04:31:54;9.40;99.90
14769;DHT22;7476;49.404;11.152;2022-09-13T04:34:21;9.50;99.90
14769;DHT22;7476;49.404;11.152;2022-09-13T04:36:48;9.60;99.90
14769;DHT22;7476;49.404;11.152;2022-09-13T04:39:15;9.70;99.90
14769;DHT22;7476;49.404;11.152;2022-09-13T04:41:44;9.60;99.90
14769;DHT22;7476;49.404;11.152;2022-09-13T04:44:13;9.50;99.90
14769;DHT22;7476;49.404;11.152;2022-09-13T04:46:40;9.30;99.90
14769;DHT22;7476;49.404;11.152;2022-09-13T04:49:09;9.20;99.90
14769;DHT22;7476;49.404;11.152;2022-09-13T04:51:35;9.10;99.90
14769;DHT22;7476;49.404;11.152;2022-09-13T04:54:02;9.20;99.90
14769;DHT22;7476;49.404;11.152;2022-09-13T04:56:29;9.20;99.90
14769;DHT22;7476;49.404;11.152;2022-09-13T04:58:57;9.20;99.90
14769;DHT22;7476;49.404;11.152;2022-09-13T05:01:24;9.50;99.90
14769;DHT22;7476;49.404;11.152;2022-09-13T05:03:51;9.50;99.90
14769;DHT22;7476;49.404;11.152;2022-09-13T05:06:18;9.40;99.90
14769;DHT22;7476;49.404;11.152;2022-09-13T05:08:49;9.60;99.90
14769;DHT22;7476;49.404;11.152;2022-09-13T05:11:19;9.50;99.90
14769;DHT22;7476;49.404;11.152;2022-09-13T05:13:48;9.40;99.90
14769;DHT22;7476;49.404;11.152;2022-09-13T05:16:18;9.50;99.90
14769;DHT22;7476;49.404;11.152;2022-09-13T05:18:45;9.50;99.90
14769;DHT22;7476;49.404;11.152;2022-09-13T05:21:12;9.70;99.90
14769;DHT22;7476;49.404;11.152;2022-09-13T05:23:39;9.90;99.90
14769;DHT22;7476;49.404;11.152;2022-09-13T05:26:05;9.90;99.90
14769;DHT22;7476;49.404;11.152;2022-09-13T05:28:33;10.00;99.90
14769;DHT22;7476;49.404;11.152;2022-09-13T05:31:01;10.00;99.90
14769;DHT22;7476;49.404;11.152;2022-09-13T05:33:32;10.10;99.90
14769;DHT22;7476;49.404;11.152;2022-09-13T05:35:59;10.20;99.90
14769;DHT22;7476;49.404;11.152;2022-09-13T05:38:26;10.40;99.90
14769;DHT22;7476;49.404;11.152;2022-09-13T05:40:54;10.60;99.90
14769;DHT22;7476;49.404;11.152;2022-09-13T05:43:21;10.90;99.90
14769;DHT22;7476;49.404;11.152;2022-09-13T05:45:48;11.20;99.90
14769;DHT22;7476;49.404;11.152;2022-09-13T05:48:15;11.50;99.90
14769;DHT22;7476;49.404;11.152;2022-09-13T05:50:42;11.90;99.90
14769;DHT22;7476;49.404;11.152;2022-09-13T05:53:09;12.30;99.90
14769;DHT22;7476;49.404;11.152;2022-09-13T05:55:36;12.80;99.90
14769;DHT22;7476;49.404;11.152;2022-09-13T05:58:02;13.30;99.90
14769;DHT22;7476;49.404;11.152;2022-09-13T06:00:29;13.70;99.90
14769;DHT22;7476;49.404;11.152;2022-09-13T06:02:56;14.10;99.90
14769;DHT22;7476;49.404;11.152;2022-09-13T06:05:23;14.00;99.90
14769;DHT22;7476;49.404;11.152;2022-09-13T06:07:51;13.90;99.90
14769;DHT22;7476;49.404;11.152;2022-09-13T06:10:18;13.70;99.90
14769;DHT22;7476;49.404;11.152;2022-09-13T06:12:45;14.00;99.90
14769;DHT22;7476;49.404;11.152;2022-09-13T06:15:12;13.90;99.90
14769;DHT22;7476;49.404;11.152;2022-09-13T06:17:39;13.50;99.90
14769;DHT22;7476;49.404;11.152;2022-09-13T06:20:07;13.80;99.90
14769;DHT22;7476;49.404;11.152;2022-09-13T06:22:35;13.70;99.90
14769;DHT22;7476;49.404;11.152;2022-09-13T06:25:03;13.70;99.90
14769;DHT22;7476;49.404;11.152;2022-09-13T06:27:30;13.90;99.90
14769;DHT22;7476;49.404;11.152;2022-09-13T06:29:56;14.10;99.90
14769;DHT22;7476;49.404;11.152;2022-09-13T06:32:23;14.00;99.90
14769;DHT22;7476;49.404;11.152;2022-09-13T06:34:50;13.90;99.90
14769;DHT22;7476;49.404;11.152;2022-09-13T06:37:16;14.10;99.90
14769;DHT22;7476;49.404;11.152;2022-09-13T06:39:43;14.20;99.90
14769;DHT22;7476;49.404;11.152;2022-09-13T06:42:11;14.30;99.90
14769;DHT22;7476;49.404;11.152;2022-09-13T06:44:37;14.40;99.90
14769;DHT22;7476;49.404;11.152;2022-09-13T06:47:04;14.80;99.90
14769;DHT22;7476;49.404;11.152;2022-09-13T06:49:31;14.80;99.90
14769;DHT22;7476;49.404;11.152;2022-09-13T06:51:57;14.70;99.90
14769;DHT22;7476;49.404;11.152;2022-09-13T06:54:24;15.10;99.90
14769;DHT22;7476;49.404;11.152;2022-09-13T06:56:51;15.50;99.90
14769;DHT22;7476;49.404;11.152;2022-09-13T06:59:19;15.80;99.90
14769;DHT22;7476;49.404;11.152;2022-09-13T07:01:46;16.00;99.90
14769;DHT22;7476;49.404;11.152;2022-09-13T07:04:15;16.40;99.90
14769;DHT22;7476;49.404;11.152;2022-09-13T07:06:43;16.00;99.90
14769;DHT22;7476;49.404;11.152;2022-09-13T07:09:12;16.40;99.90
14769;DHT22;7476;49.404;11.152;2022-09-13T07:11:40;16.80;99.90
14769;DHT22;7476;49.404;11.152;2022-09-13T07:14:07;17.20;99.90
14769;DHT22;7476;49.404;11.152;2022-09-13T07:16:36;17.30;99.90
14769;DHT22;7476;49.404;11.152;2022-09-13T07:19:05;17.10;99.90
14769;DHT22;7476;49.404;11.152;2022-09-13T07:21:32;17.30;99.90
14769;DHT22;7476;49.404;11.152;2022-09-13T07:24:01;17.70;99.90
14769;DHT22;7476;49.404;11.152;2022-09-13T07:26:27;17.60;99.90
14769;DHT22;7476;49.404;11.152;2022-09-13T07:28:57;18.00;99.90
14769;DHT22;7476;49.404;11.152;2022-09-13T07:31:25;18.20;99.90
14769;DHT22;7476;49.404;11.152;2022-09-13T07:33:55;18.40;99.90
14769;DHT22;7476;49.404;11.152;2022-09-13T07:36:23;18.60;99.90
14769;DHT22;7476;49.404;11.152;2022-09-13T07:38:50;18.70;99.90
14769;DHT22;7476;49.404;11.152;2022-09-13T07:41:19;18.50;99.90
14769;DHT22;7476;49.404;11.152;2022-09-13T07:43:46;18.60;99.90
14769;DHT22;7476;49.404;11.152;2022-09-13T07:46:16;18.90;99.90
14769;DHT22;7476;49.404;11.152;2022-09-13T07:48:44;18.80;99.90
14769;DHT22;7476;49.404;11.152;2022-09-13T07:51:14;19.00;99.90
14769;DHT22;7476;49.404;11.152;2022-09-13T07:53:43;19.20;99.90
14769;DHT22;7476;49.404;11.152;2022-09-13T07:56:11;19.60;99.90
14769;DHT22;7476;49.404;11.152;2022-09-13T07:58:39;19.50;99.90
14769;DHT22;7476;49.404;11.152;2022-09-13T08:01:08;19.70;99.90
14769;DHT22;7476;49.404;11.152;2022-09-13T08:03:36;19.90;99.90
14769;DHT22;7476;49.404;11.152;2022-09-13T08:06:03;20.00;99.90
14769;DHT22;7476;49.404;11.152;2022-09-13T08:08:33;19.90;99.90
14769;DHT22;7476;49.404;11.152;2022-09-13T08:11:01;20.10;99.90
14769;DHT22;7476;49.404;11.152;2022-09-13T08:13:29;20.30;99.90
14769;DHT22;7476;49.404;11.152;2022-09-13T08:16:00;20.30;99.90
14769;DHT22;7476;49.404;11.152;2022-09-13T08:18:27;20.30;99.90
14769;DHT22;7476;49.404;11.152;2022-09-13T08:20:55;20.30;99.90
14769;DHT22;7476;49.404;11.152;2022-09-13T08:23:22;20.30;99.90
14769;DHT22;7476;49.404;11.152;2022-09-13T08:25:51;20.20;99.90
14769;DHT22;7476;49.404;11.152;2022-09-13T08:28:19;20.30;99.90
14769;DHT22;7476;49.404;11.152;2022-09-13T08:30:47;20.50;99.90
14769;DHT22;7476;49.404;11.152;2022-09-13T08:33:14;20.90;99.90
14769;DHT22;7476;49.404;11.152;2022-09-13T08:35:49;21.00;99.90
14769;DHT22;7476;49.404;11.152;2022-09-13T08:38:16;21.10;99.90
14769;DHT22;7476;49.404;11.152;2022-09-13T08:40:47;20.80;99.90
14769;DHT22;7476;49.404;11.152;2022-09-13T08:43:21;20.80;99.90
14769;DHT22;7476;49.404;11.152;2022-09-13T08:45:59;21.10;99.90
14769;DHT22;7476;49.404;11.152;2022-09-13T08:48:31;21.80;99.90
14769;DHT22;7476;49.404;11.152;2022-09-13T08:51:03;22.70;99.90
14769;DHT22;7476;49.404;11.152;2022-09-13T08:53:40;23.50;99.90
14769;DHT22;7476;49.404;11.152;2022-09-13T08:56:10;23.80;99.90
14769;DHT22;7476;49.404;11.152;2022-09-13T08:58:51;23.40;99.90
14769;DHT22;7476;49.404;11.152;2022-09-13T09:01:29;23.10;99.90
14769;DHT22;7476;49.404;11.152;2022-09-13T09:04:05;24.00;99.90
14769;DHT22;7476;49.404;11.152;2022-09-13T09:06:33;24.60;99.90
14769;DHT22;7476;49.404;11.152;2022-09-13T09:09:04;24.60;99.90
14769;DHT22;7476;49.404;11.152;2022-09-13T09:11:36;24.30;99.90
14769;DHT22;7476;49.404;11.152;2022-09-13T09:14:16;24.50;99.90
14769;DHT22;7476;49.404;11.152;2022-09-13T09:16:49;23.40;99.90
14769;DHT22;7476;49.404;11.152;2022-09-13T09:19:21;23.60;99.90
14769;DHT22;7476;49.404;11.152;2022-09-13T09:21:49;22.80;99.90
14769;DHT22;7476;49.404;11.152;2022-09-13T09:24:20;22.80;99.90
14769;DHT22;7476;49.404;11.152;2022-09-13T09:26:47;22.70;99.90
14769;DHT22;7476;49.404;11.152;2022-09-13T09:29:20;22.30;99.90
14769;DHT22;7476;49.404;11.152;2022-09-13T09:31:56;22.20;99.90
14769;DHT22;7476;49.404;11.152;2022-09-13T09:34:34;22.50;99.90
14769;DHT22;7476;49.404;11.152;2022-09-13T09:37:11;22.30;99.90
14769;DHT22;7476;49.404;11.152;2022-09-13T09:39:40;22.40;99.90
14769;DHT22;7476;49.404;11.152;2022-09-13T09:42:12;22.70;99.90
14769;DHT22;7476;49.404;11.152;2022-09-13T09:44:45;22.70;99.90
14769;DHT22;7476;49.404;11.152;2022-09-13T09:47:15;22.50;99.90
14769;DHT22;7476;49.404;11.152;2022-09-13T09:49:46;22.50;99.90
14769;DHT22;7476;49.404;11.152;2022-09-13T09:52:33;22.70;99.90
14769;DHT22;7476;49.404;11.152;2022-09-13T09:55:13;22.80;99.90
14769;DHT22;7476;49.404;11.152;2022-09-13T09:57:55;22.80;99.90
14769;DHT22;7476;49.404;11.152;2022-09-13T10:00:24;22.80;99.90
14769;DHT22;7476;49.404;11.152;2022-09-13T10:02:55;22.80;99.90
14769;DHT22;7476;49.404;11.152;2022-09-13T10:05:23;22.80;99.90
14769;DHT22;7476;49.404;11.152;2022-09-13T10:07:58;22.80;99.90
14769;DHT22;7476;49.404;11.152;2022-09-13T10:10:31;22.40;99.90
14769;DHT22;7476;49.404;11.152;2022-09-13T10:13:02;22.50;99.90
14769;DHT22;7476;49.404;11.152;2022-09-13T10:15:31;22.80;99.90
14769;DHT22;7476;49.404;11.152;2022-09-13T10:18:03;23.30;99.90
14769;DHT22;7476;49.404;11.152;2022-09-13T10:20:31;23.60;99.90
14769;DHT22;7476;49.404;11.152;2022-09-13T10:23:09;23.40;99.90
14769;DHT22;7476;49.404;11.152;2022-09-13T10:25:37;23.60;99.90
14769;DHT22;7476;49.404;11.152;2022-09-13T10:28:06;23.70;99.90
14769;DHT22;7476;49.404;11.152;2022-09-13T10:30:40;23.70;99.90
14769;DHT22;7476;49.404;11.152;2022-09-13T10:33:18;23.50;99.90
14769;DHT22;7476;49.404;11.152;2022-09-13T10:35:47;23.20;99.90
14769;DHT22;7476;49.404;11.152;2022-09-13T10:38:20;23.50;99.90
14769;DHT22;7476;49.404;11.152;2022-09-13T10:40:49;23.90;99.90
14769;DHT22;7476;49.404;11.152;2022-09-13T10:43:16;24.30;99.90
14769;DHT22;7476;49.404;11.152;2022-09-13T10:45:48;24.50;99.90
14769;DHT22;7476;49.404;11.152;2022-09-13T10:48:17;24.30;99.90
14769;DHT22;7476;49.404;11.152;2022-09-13T10:51:00;23.90;99.90
14769;DHT22;7476;49.404;11.152;2022-09-13T10:53:33;23.60;99.90
14769;DHT22;7476;49.404;11.152;2022-09-13T10:56:01;23.80;99.90
14769;DHT22;7476;49.404;11.152;2022-09-13T10:58:28;23.80;99.90
14769;DHT22;7476;49.404;11.152;2022-09-13T11:01:15;24.00;99.90
14769;DHT22;7476;49.404;11.152;2022-09-13T11:04:17;24.60;99.90
14769;DHT22;7476;49.404;11.152;2022-09-13T11:06:52;25.20;99.90
14769;DHT22;7476;49.404;11.152;2022-09-13T11:09:27;25.70;99.90
14769;DHT22;7476;49.404;11.152;2022-09-13T11:12:05;26.30;99.90
14769;DHT22;7476;49.404;11.152;2022-09-13T11:14:42;27.20;99.90
14769;DHT22;7476;49.404;11.152;2022-09-13T11:17:19;26.90;99.90
14769;DHT22;7476;49.404;11.152;2022-09-13T11:20:03;27.50;99.90
14769;DHT22;7476;49.404;11.152;2022-09-13T11:22:45;27.60;99.90
14769;DHT22;7476;49.404;11.152;2022-09-13T11:25:32;28.00;99.10
14769;DHT22;7476;49.404;11.152;2022-09-13T11:28:09;27.50;99.90
14769;DHT22;7476;49.404;11.152;2022-09-13T11:30:50;26.70;99.90
14769;DHT22;7476;49.404;11.152;2022-09-13T11:33:35;26.50;99.90
14769;DHT22;7476;49.404;11.152;2022-09-13T11:36:21;26.70;99.90
14769;DHT22;7476;49.404;11.152;2022-09-13T11:38:59;26.40;99.90
14769;DHT22;7476;49.404;11.152;2022-09-13T11:41:38;26.20;99.90
14769;DHT22;7476;49.404;11.152;2022-09-13T11:44:27;25.80;99.90
14769;DHT22;7476;49.404;11.152;2022-09-13T11:47:01;25.70;99.90
14769;DHT22;7476;49.404;11.152;2022-09-13T11:49:41;25.80;99.90
14769;DHT22;7476;49.404;11.152;2022-09-13T11:52:19;26.20;99.90
14769;DHT22;7476;49.404;11.152;2022-09-13T11:55:01;25.80;99.90
14769;DHT22;7476;49.404;11.152;2022-09-13T11:57:33;25.70;99.90
14769;DHT22;7476;49.404;11.152;2022-09-13T12:00:03;25.10;99.90
14769;DHT22;7476;49.404;11.152;2022-09-13T12:02:38;24.40;99.90
14769;DHT22;7476;49.404;11.152;2022-09-13T12:05:10;24.00;99.90
14769;DHT22;7476;49.404;11.152;2022-09-13T12:07:43;23.70;99.90
14769;DHT22;7476;49.404;11.152;2022-09-13T12:10:15;23.40;99.90
14769;DHT22;7476;49.404;11.152;2022-09-13T12:12:43;23.10;99.90
14769;DHT22;7476;49.404;11.152;2022-09-13T12:15:16;23.10;99.90
14769;DHT22;7476;49.404;11.152;2022-09-13T12:17:48;23.10;99.90
14769;DHT22;7476;49.404;11.152;2022-09-13T12:20:23;23.20;99.90
14769;DHT22;7476;49.404;11.152;2022-09-13T12:22:53;23.20;99.90
14769;DHT22;7476;49.404;11.152;2022-09-13T12:25:24;23.10;99.90
14769;DHT22;7476;49.404;11.152;2022-09-13T12:27:57;22.90;99.90
14769;DHT22;7476;49.404;11.152;2022-09-13T12:30:27;22.80;99.90
14769;DHT22;7476;49.404;11.152;2022-09-13T12:32:59;22.70;99.90
14769;DHT22;7476;49.404;11.152;2022-09-13T12:35:29;22.50;99.90
14769;DHT22;7476;49.404;11.152;2022-09-13T12:38:26;22.40;99.90
14769;DHT22;7476;49.404;11.152;2022-09-13T12:41:20;22.40;99.90
14769;DHT22;7476;49.404;11.152;2022-09-13T12:44:05;22.50;99.90
14769;DHT22;7476;49.404;11.152;2022-09-13T12:49:42;22.80;99.90
14769;DHT22;7476;49.404;11.152;2022-09-13T12:52:31;22.90;99.90
14769;DHT22;7476;49.404;11.152;2022-09-13T12:57:58;23.00;99.90
14769;DHT22;7476;49.404;11.152;2022-09-13T13:00:31;23.00;99.90
14769;DHT22;7476;49.404;11.152;2022-09-13T13:03:03;23.10;99.90
14769;DHT22;7476;49.404;11.152;2022-09-13T13:05:38;23.20;99.90
14769;DHT22;7476;49.404;11.152;2022-09-13T13:08:24;23.20;99.90
14769;DHT22;7476;49.404;11.152;2022-09-13T13:11:00;23.10;99.90
14769;DHT22;7476;49.404;11.152;2022-09-13T13:13:35;23.10;99.90
14769;DHT22;7476;49.404;11.152;2022-09-13T13:16:19;23.00;99.90
14769;DHT22;7476;49.404;11.152;2022-09-13T13:18:46;22.80;99.90
14769;DHT22;7476;49.404;11.152;2022-09-13T13:21:33;22.70;99.90
14769;DHT22;7476;49.404;11.152;2022-09-13T13:24:43;22.80;99.90
14769;DHT22;7476;49.404;11.152;2022-09-13T13:27:38;22.90;99.90
14769;DHT22;7476;49.404;11.152;2022-09-13T13:33:22;22.90;99.90
14769;DHT22;7476;49.404;11.152;2022-09-13T13:35:49;23.10;99.90
14769;DHT22;7476;49.404;11.152;2022-09-13T13:38:36;23.50;99.90
14769;DHT22;7476;49.404;11.152;2022-09-13T13:41:07;23.80;99.90
14769;DHT22;7476;49.404;11.152;2022-09-13T13:43:55;24.10;99.90
14769;DHT22;7476;49.404;11.152;2022-09-13T13:46:30;24.20;99.90
14769;DHT22;7476;49.404;11.152;2022-09-13T13:55:01;24.30;99.90
14769;DHT22;7476;49.404;11.152;2022-09-13T13:57:32;24.30;99.90
14769;DHT22;7476;49.404;11.152;2022-09-13T14:00:10;24.20;99.90
14769;DHT22;7476;49.404;11.152;2022-09-13T14:02:50;24.10;99.90
14769;DHT22;7476;49.404;11.152;2022-09-13T14:05:26;24.00;99.90
14769;DHT22;7476;49.404;11.152;2022-09-13T14:08:22;23.90;99.90
14769;DHT22;7476;49.404;11.152;2022-09-13T14:11:00;23.80;99.90
14769;DHT22;7476;49.404;11.152;2022-09-13T14:13:42;23.70;99.90
14769;DHT22;7476;49.404;11.152;2022-09-13T14:16:23;23.70;99.90
14769;DHT22;7476;49.404;11.152;2022-09-13T14:19:17;23.90;99.90
14769;DHT22;7476;49.404;11.152;2022-09-13T14:22:04;24.10;99.90
14769;DHT22;7476;49.404;11.152;2022-09-13T14:24:35;24.30;99.90
14769;DHT22;7476;49.404;11.152;2022-09-13T14:27:03;24.30;99.90
14769;DHT22;7476;49.404;11.152;2022-09-13T14:29:30;24.50;99.90
14769;DHT22;7476;49.404;11.152;2022-09-13T14:32:03;24.80;99.90
14769;DHT22;7476;49.404;11.152;2022-09-13T14:34:33;25.00;99.90
14769;DHT22;7476;49.404;11.152;2022-09-13T14:37:04;25.10;99.90
14769;DHT22;7476;49.404;11.152;2022-09-13T14:39:32;25.30;99.90
14769;DHT22;7476;49.404;11.152;2022-09-13T14:42:10;25.60;99.90
14769;DHT22;7476;49.404;11.152;2022-09-13T14:44:42;25.90;99.90
14769;DHT22;7476;49.404;11.152;2022-09-13T14:47:18;25.30;99.90
14769;DHT22;7476;49.404;11.152;2022-09-13T14:49:49;25.30;99.90
14769;DHT22;7476;49.404;11.152;2022-09-13T14:52:20;25.40;99.90
14769;DHT22;7476;49.404;11.152;2022-09-13T14:54:51;25.30;99.90
14769;DHT22;7476;49.404;11.152;2022-09-13T14:57:24;25.30;99.90
14769;DHT22;7476;49.404;11.152;2022-09-13T14:59:54;24.40;99.90
14769;DHT22;7476;49.404;11.152;2022-09-13T15:02:25;24.40;99.90
14769;DHT22;7476;49.404;11.152;2022-09-13T15:04:55;24.70;99.90
14769;DHT22;7476;49.404;11.152;2022-09-13T15:07:27;25.10;99.90
14769;DHT22;7476;49.404;11.152;2022-09-13T15:09:55;25.30;99.90
14769;DHT22;7476;49.404;11.152;2022-09-13T15:12:26;24.90;99.90
14769;DHT22;7476;49.404;11.152;2022-09-13T15:17:59;24.50;99.90
14769;DHT22;7476;49.404;11.152;2022-09-13T15:20:28;24.10;99.90
14769;DHT22;7476;49.404;11.152;2022-09-13T15:22:56;23.90;99.90
14769;DHT22;7476;49.404;11.152;2022-09-13T15:25:24;23.90;99.90
14769;DHT22;7476;49.404;11.152;2022-09-13T15:27:52;24.30;99.90
14769;DHT22;7476;49.404;11.152;2022-09-13T15:30:22;24.10;99.90
14769;DHT22;7476;49.404;11.152;2022-09-13T15:33:14;23.90;99.90
14769;DHT22;7476;49.404;11.152;2022-09-13T15:35:43;23.90;99.90
14769;DHT22;7476;49.404;11.152;2022-09-13T15:38:17;24.20;99.90
14769;DHT22;7476;49.404;11.152;2022-09-13T15:40:45;24.40;99.90
14769;DHT22;7476;49.404;11.152;2022-09-13T15:43:12;24.10;99.90
14769;DHT22;7476;49.404;11.152;2022-09-13T15:45:39;24.30;99.90
14769;DHT22;7476;49.404;11.152;2022-09-13T15:48:24;24.40;99.90
14769;DHT22;7476;49.404;11.152;2022-09-13T15:51:05;24.40;99.90
14769;DHT22;7476;49.404;11.152;2022-09-13T15:53:32;24.10;99.90
14769;DHT22;7476;49.404;11.152;2022-09-13T15:56:00;23.90;99.90
14769;DHT22;7476;49.404;11.152;2022-09-13T15:58:27;23.70;99.90
14769;DHT22;7476;49.404;11.152;2022-09-13T16:00:53;23.80;99.90
14769;DHT22;7476;49.404;11.152;2022-09-13T16:03:20;24.00;99.90
14769;DHT22;7476;49.404;11.152;2022-09-13T16:05:47;24.10;99.90
14769;DHT22;7476;49.404;11.152;2022-09-13T16:08:15;24.00;99.90
14769;DHT22;7476;49.404;11.152;2022-09-13T16:10:41;23.90;99.90
14769;DHT22;7476;49.404;11.152;2022-09-13T16:13:08;23.80;99.90
14769;DHT22;7476;49.404;11.152;2022-09-13T16:15:35;23.80;99.90
14769;DHT22;7476;49.404;11.152;2022-09-13T16:18:02;23.60;99.90
14769;DHT22;7476;49.404;11.152;2022-09-13T16:20:28;23.50;99.90
14769;DHT22;7476;49.404;11.152;2022-09-13T16:22:55;23.40;99.90